Stations météo

réclame
Mon MeteoGroup
Arroyo Del Ojanco, Espagne (8352): Température de l'air & dewpoint: 05.12.2017 01:00:00 - 11.12.2017 01:00:00 (CET)Arroyo Del Ojanco, Espagne (8352): Vitesse du vent & gusts: 05.12.2017 01:00:00 - 11.12.2017 01:00:00 (CET)Arroyo Del Ojanco, Espagne (8352): Direction du vent: 05.12.2017 01:00:00 - 11.12.2017 01:00:00 (CET)Arroyo Del Ojanco, Espagne (8352): Quantités de précipitations: 05.12.2017 01:00:00 - 11.12.2017 01:00:00 (CET)
Date & Time tt [°C] td [°C] ff [km/h] ff [knt] fx [km/h] fx [knt] dd rr [mm]
11.12.2017 01:00:00 - - - - - - - -
11.12.2017 00:00:00 12,3 8,4 28 15 51 27 SW 0,0
10.12.2017 23:00:00 12,2 7,9 31 17 50 27 SW 0,0
10.12.2017 22:00:00 12,0 6,9 31 17 65 35 SW 0,0
10.12.2017 21:00:00 12,1 7,0 24 13 44 24 SW 0,0
10.12.2017 20:00:00 11,7 8,9 26 14 43 23 SW 0,0
10.12.2017 19:00:00 11,0 9,4 23 13 41 22 SW -
10.12.2017 18:00:00 10,6 8,7 18 10 31 17 SSW 0,0
10.12.2017 17:00:00 11,4 8,1 13 7 28 15 SW 0,0
10.12.2017 16:00:00 11,3 8,2 14 8 43 23 SW 0,0
10.12.2017 15:00:00 12,0 7,1 20 11 34 18 SSW 0,0
10.12.2017 14:00:00 12,3 7,0 23 13 35 19 SW 0,0
10.12.2017 13:00:00 12,3 8,6 22 12 36 20 SW -
10.12.2017 12:00:00 11,1 10,9 19 10 29 16 SW 0,0
10.12.2017 11:00:00 10,5 10,0 14 8 25 14 SW 0,0
10.12.2017 10:00:00 10,6 10,1 16 8 27 14 SW 0,0
10.12.2017 09:00:00 10,3 10,1 15 8 25 14 SW 0,0
10.12.2017 08:00:00 10,5 10,3 11 6 16 9 SSW 0,0
10.12.2017 07:00:00 10,7 10,2 8 4 18 10 SW -
10.12.2017 06:00:00 10,8 10,3 12 7 21 12 SSW 0,0
10.12.2017 05:00:00 10,7 10,5 9 5 23 12 SW 0,0
10.12.2017 04:00:00 10,6 10,4 9 5 21 12 SW 0,0
10.12.2017 03:00:00 10,5 10,3 1 1 9 5 WSW 0,0
10.12.2017 02:00:00 10,5 10,2 2 1 16 9 SW 0,0
10.12.2017 01:00:00 10,8 10,3 10 5 20 11 SW -
10.12.2017 00:00:00 10,9 10,0 10 5 15 8 SW 0,0
09.12.2017 23:00:00 10,9 10,0 7 4 13 7 SSW 0,0
09.12.2017 22:00:00 10,6 9,7 6 3 13 7 SSW 0,0
09.12.2017 21:00:00 10,7 9,8 6 4 13 7 S 0,0
09.12.2017 20:00:00 10,6 9,4 3 1 13 7 W 0,0
09.12.2017 19:00:00 10,9 9,5 9 5 15 8 W -
09.12.2017 18:00:00 11,4 9,7 8 4 13 7 SW 0,0
09.12.2017 17:00:00 11,7 9,6 4 2 14 8 SSW 0,0
09.12.2017 16:00:00 12,4 9,4 5 3 18 10 WSW 0,0
09.12.2017 15:00:00 13,0 9,3 7 4 19 10 SW 0,0
09.12.2017 14:00:00 11,4 9,5 3 2 11 6 SW 0,0
09.12.2017 13:00:00 10,1 8,9 0 0 0 0 N -
09.12.2017 12:00:00 8,9 8,8 0 0 0 0 N 0,0
09.12.2017 11:00:00 8,4 8,3 1 1 9 5 S 0,0
09.12.2017 10:00:00 7,6 7,5 0 0 0 0 N 0,0
09.12.2017 09:00:00 7,3 7,2 0 0 0 0 N 0,0
09.12.2017 08:00:00 7,1 6,7 0 0 8 5 N 0,0
09.12.2017 07:00:00 8,4 6,0 1 1 16 9 SW -
09.12.2017 06:00:00 9,7 2,3 0 0 11 6 SSW 0,0
09.12.2017 05:00:00 9,8 1,7 5 3 11 6 SSW 0,0
09.12.2017 04:00:00 10,1 1,5 3 2 13 7 SW 0,0
09.12.2017 03:00:00 10,0 1,7 4 2 11 6 S 0,0
09.12.2017 02:00:00 10,3 1,4 0 0 12 7 SSW 0,0
09.12.2017 01:00:00 10,8 1,4 4 2 16 8 SW -
09.12.2017 00:00:00 10,7 1,3 6 3 13 7 SSW 0,0
08.12.2017 23:00:00 10,4 0,2 0 0 10 5 SSW 0,0
08.12.2017 22:00:00 11,3 -0,2 0 0 7 4 S 0,0
08.12.2017 21:00:00 11,0 -1,1 3 2 11 6 S 0,0
08.12.2017 20:00:00 11,4 -1,0 4 2 12 7 S 0,0
08.12.2017 19:00:00 11,7 -0,4 5 3 13 7 S -
08.12.2017 18:00:00 12,6 -0,3 2 1 15 8 SSW 0,0
08.12.2017 17:00:00 14,6 -1,0 8 4 18 10 SSW 0,0
08.12.2017 16:00:00 15,0 -2,4 10 6 25 13 SW 0,0
08.12.2017 15:00:00 15,5 -1,1 13 7 23 12 WSW 0,0
08.12.2017 14:00:00 14,2 0,8 9 5 18 10 WSW 0,0
08.12.2017 13:00:00 12,4 1,4 0 0 4 2 SSW -
08.12.2017 12:00:00 9,1 0,3 0 0 7 4 NNW 0,0
08.12.2017 11:00:00 7,0 0,5 0 0 0 0 N 0,0
08.12.2017 10:00:00 3,5 0,2 0 0 0 0 N 0,0
08.12.2017 09:00:00 0,5 -1,2 0 0 6 3 N 0,0
08.12.2017 08:00:00 0,4 -1,7 0 0 6 3 N 0,0
08.12.2017 07:00:00 1,2 -1,4 0 0 10 5 N -
08.12.2017 06:00:00 1,2 -1,4 0 0 10 6 N 0,0
08.12.2017 05:00:00 0,9 -1,5 0 0 3 2 N 0,0
08.12.2017 04:00:00 2,1 -1,7 0 0 8 5 N 0,0
08.12.2017 03:00:00 2,1 -2,0 0 0 0 0 N 0,0
08.12.2017 02:00:00 3,0 -1,7 0 0 11 6 N 0,0
08.12.2017 01:00:00 3,6 -1,5 0 0 8 4 N -
08.12.2017 00:00:00 3,6 -1,9 1 0 16 9 E 0,0
07.12.2017 23:00:00 5,1 -1,8 2 1 15 8 SSE 0,0
07.12.2017 22:00:00 5,3 -3,0 0 0 4 2 N 0,0
07.12.2017 21:00:00 6,2 -3,4 0 0 6 3 N 0,0
07.12.2017 20:00:00 8,9 -3,0 6 3 11 6 SE 0,0
07.12.2017 19:00:00 8,6 -4,2 0 0 9 5 N -
07.12.2017 18:00:00 11,8 -3,1 4 2 9 5 SSE 0,0
07.12.2017 17:00:00 15,8 -1,7 0 0 8 5 SSW 0,0
07.12.2017 16:00:00 15,9 -1,2 0 0 8 5 WSW 0,0
07.12.2017 15:00:00 16,1 0,3 0 0 8 4 W 0,0
07.12.2017 14:00:00 14,8 1,0 0 0 5 3 N 0,0
07.12.2017 13:00:00 12,2 1,3 0 0 1 1 NNW -
07.12.2017 12:00:00 9,2 0,7 0 0 2 1 N 0,0
07.12.2017 11:00:00 6,3 0,4 0 0 1 0 N 0,0
07.12.2017 10:00:00 2,2 -1,0 0 0 1 1 NNE 0,0
07.12.2017 09:00:00 -0,7 -2,1 0 0 11 6 SSW 0,0
07.12.2017 08:00:00 -0,8 -2,2 0 0 6 4 N 0,0
07.12.2017 07:00:00 -1,0 -2,7 0 0 10 5 N -
07.12.2017 06:00:00 0,3 -1,6 1 1 9 5 NE 0,0
07.12.2017 05:00:00 -0,2 -2,2 0 0 0 0 N 0,0
07.12.2017 04:00:00 0,7 -2,0 1 1 13 7 NNE 0,0
07.12.2017 03:00:00 0,9 -2,3 1 1 9 5 NNE 0,0
07.12.2017 02:00:00 1,3 -1,9 0 0 0 0 N 0,0
07.12.2017 01:00:00 2,3 -1,7 0 0 0 0 N -
07.12.2017 00:00:00 2,6 -2,1 0 0 6 3 ENE 0,0
06.12.2017 23:00:00 3,3 -2,6 0 0 0 0 N 0,0
06.12.2017 22:00:00 4,4 -3,1 0 0 0 0 N 0,0
06.12.2017 21:00:00 5,6 -3,2 0 0 0 0 N 0,0
06.12.2017 20:00:00 6,8 -3,4 0 0 0 0 N 0,0
06.12.2017 19:00:00 8,3 -3,2 0 0 8 4 N -
06.12.2017 18:00:00 10,4 -3,3 0 0 3 1 SSE 0,0
06.12.2017 17:00:00 15,1 -1,0 0 0 7 4 N 0,0
06.12.2017 16:00:00 14,9 -0,8 1 0 9 5 WSW 0,0
06.12.2017 15:00:00 14,3 -0,5 0 0 7 4 WNW 0,0
06.12.2017 14:00:00 12,9 0,0 0 0 4 2 SSW 0,0
06.12.2017 13:00:00 10,3 -0,5 0 0 2 1 SSW -
06.12.2017 12:00:00 7,1 -1,3 0 0 1 1 N 0,0
06.12.2017 11:00:00 4,8 -1,4 0 0 0 0 N 0,0
06.12.2017 10:00:00 2,7 -0,9 0 0 0 0 N 0,0
06.12.2017 09:00:00 -1,4 -3,6 0 0 7 4 N 0,0
06.12.2017 08:00:00 -1,3 -3,5 0 0 0 0 N 0,0
06.12.2017 07:00:00 -1,0 -3,0 3 2 7 4 NE -
06.12.2017 06:00:00 -1,1 -3,3 0 0 0 0 NE 0,0
06.12.2017 05:00:00 -0,8 -3,5 0 0 11 6 N 0,0
06.12.2017 04:00:00 -0,4 -3,4 0 0 0 0 N 0,0
06.12.2017 03:00:00 0,6 -3,1 0 0 8 4 ENE 0,0
06.12.2017 02:00:00 0,7 -3,4 0 0 1 0 N 0,0
06.12.2017 01:00:00 1,3 -3,5 0 0 2 1 N -
06.12.2017 00:00:00 1,9 -3,6 0 0 5 3 NE 0,0
05.12.2017 23:00:00 2,9 -3,2 0 0 5 3 N 0,0
05.12.2017 22:00:00 3,5 -3,7 0 0 0 0 N 0,0
05.12.2017 21:00:00 4,4 -4,1 0 0 0 0 N 0,0
05.12.2017 20:00:00 5,9 -4,0 0 0 0 0 N 0,0
05.12.2017 19:00:00 7,0 -4,1 0 0 0 0 N -
05.12.2017 18:00:00 9,3 -3,9 0 0 6 3 N 0,0
05.12.2017 17:00:00 13,8 -2,1 2 1 8 4 W 0,0
05.12.2017 16:00:00 14,4 -2,0 1 0 10 5 W 0,0
05.12.2017 15:00:00 13,2 -1,1 0 0 9 5 WSW 0,0
05.12.2017 14:00:00 11,6 -1,5 0 0 10 6 WSW 0,0
05.12.2017 13:00:00 9,7 -1,0 0 0 8 5 S -
05.12.2017 12:00:00 6,8 -1,6 0 0 5 3 N 0,0
05.12.2017 11:00:00 3,7 -2,2 0 0 0 0 N 0,0
05.12.2017 10:00:00 2,0 -1,9 0 0 0 0 N 0,0
05.12.2017 09:00:00 -2,6 -3,9 0 0 0 0 N 0,0
05.12.2017 08:00:00 -2,4 -4,0 0 0 2 1 N 0,0
05.12.2017 07:00:00 -2,0 -4,0 0 0 0 0 N -
05.12.2017 06:00:00 -1,2 -3,9 0 0 0 0 N 0,0
05.12.2017 05:00:00 -0,8 -4,0 0 0 3 2 ENE 0,0
05.12.2017 04:00:00 -0,2 -3,6 0 0 0 0 N 0,0
05.12.2017 03:00:00 -0,4 -3,9 0 0 0 0 N 0,0
05.12.2017 02:00:00 0,3 -4,3 0 0 0 0 N 0,0
05.12.2017 01:00:00 0,5 -4,7 0 0 0 0 N -

tt = Température de l'air
td = dewpoint
ff = Vitesse du vent
fx = gusts
dd = Direction du vent
rr = Quantités de précipitations

stations d'obs. à proximité